Flight Track Log - Related Links

Times and Time Zones

All times are in EDT time to prevent confusion due to time zone crossing. See the RPA3275 flight status page for this flight to view local times or setup timezone preferences in your user account.

Time Position Orientation Groundspeed Altitude Reporting Facility
EDT Latitude Longitude Course Direction KTS MPH feet Rate Location/Type
Wed 06:55:20 AM 42.7672 -73.8061 220° Southwest 138 159 1,500  Level Boston Center
Wed 06:56:21 AM 42.8022 -73.8578 313° West 236 272 4,000 3,091 Climbing Boston Center
Wed 06:57:00 AM 42.7333 -74.1416 270° West  Level FlightAware Approximate
Wed 06:57:32 AM 42.7925 -73.9567 262° West 257 296 8,300  Level Boston Center
Wed 06:58:00 AM 42.7333 -74.2554 270° West  Level FlightAware Approximate
Wed 06:58:32 AM 42.7786 -74.0553 259° West 263 303 11,600  Level Boston Center
Wed 06:59:00 AM 42.7003 -74.3518 220° Southwest  Level FlightAware Approximate
Wed 06:59:32 AM 42.7622 -74.1792 260° West 284 327 15,400  Level Boston Center
Wed 07:00:00 AM 42.6359 -74.4243 220° Southwest  Level FlightAware Approximate
Wed 07:00:32 AM 42.7439 -74.2947 258° West 305 351 16,000  Level Boston Center
Wed 07:01:32 AM 42.6778 -74.3831 225° Southwest 324 373 16,000 -50 Level Boston Center
Wed 07:02:32 AM 42.6072 -74.4711 223° Southwest 332 382 15,900 -50 Descending Boston Center
Wed 07:03:32 AM 42.5331 -74.5506 218° Southwest 348 400 15,900  Level Boston Center
Wed 07:04:32 AM 42.4583 -74.6353 220° Southwest 353 406 15,900  Level Boston Center
Wed 07:05:32 AM 42.3839 -74.7197 220° Southwest 353 406 15,900  Level Boston Center
Wed 07:06:32 AM 42.3197 -74.7989 222° Southwest 353 406 15,900  Level Boston Center
Wed 07:07:32 AM 42.2492 -74.8831 221° Southwest 353 406 15,900  Level Boston Center
Wed 07:09:17 AM 42.1033 -75.0194 215° Southwest 351 404 15,900 36 Level New York Center
Wed 07:10:18 AM 42.0197 -75.0894 212° Southwest 356 410 16,000 50 Climbing New York Center
Wed 07:11:18 AM 41.9358 -75.1594 212° Southwest 356 410 16,000  Level New York Center
Wed 07:12:20 AM 41.8522 -75.2261 211° Southwest 356 410 16,000  Level New York Center
Wed 07:13:17 AM 41.7750 -75.2878 211° Southwest 356 410 16,000  Level New York Center
Wed 07:14:19 AM 41.6911 -75.3572 212° Southwest 356 410 16,000 -450 Level New York Center
Wed 07:15:17 AM 41.5986 -75.4311 211° Southwest 356 410 15,100 -1,361 Descending New York Center
Wed 07:16:18 AM 41.5169 -75.4975 211° Southwest 350 403 13,300 -1,574 Descending New York Center
Wed 07:17:19 AM 41.4372 -75.5611 211° Southwest 350 403 11,900 -694 Descending New York Center
Wed 07:18:19 AM 41.3686 -75.6142 210° Southwest 338 389 11,900 -101 Level New York Center
Wed 07:19:18 AM 41.2783 -75.6822 210° Southwest 338 389 11,700 -605 Descending New York Center
Wed 07:20:18 AM 41.1864 -75.6894 183° South 326 375 10,700 -893 Descending New York Center
Wed 07:21:19 AM 41.0947 -75.6883 179° South 333 383 9,900 -403 Descending New York Center
Wed 07:22:17 AM 41.0017 -75.6678 171° South 333 383 9,900 50 Level New York Center
Wed 07:23:18 AM 40.9117 -75.6283 162° South 341 392 10,000 49 Climbing New York Center
Wed 07:24:19 AM 40.8217 -75.5889 162° South 346 398 10,000  Level New York Center
Wed 07:25:17 AM 40.7500 -75.5592 163° South 346 398 10,000  Level New York Center
Wed 07:26:17 AM 40.6394 -75.5106 162° South 340 391 10,000  Level New York Center
Wed 07:27:18 AM 40.5492 -75.4714 162° South 340 391 10,000 49 Level New York Center
Wed 07:28:19 AM 40.4608 -75.4383 164° South 335 386 10,100 -347 Climbing New York Center
Wed 07:29:19 AM 40.3875 -75.3950 156° South 322 371 9,300 -1,289 Descending New York Center
Wed 07:30:20 AM 40.3003 -75.3919 178° South 300 345 7,500 -1,169 Descending New York Center
Wed 07:31:17 AM 40.2225 -75.4086 189° South 293 337 7,000 -555 Descending New York Center
Wed 07:32:19 AM 40.1422 -75.4331 193° South 296 341 6,400 -488 Descending New York Center
Wed 07:33:20 AM 40.0706 -75.4581 195° South 284 327 6,000 -203 Descending New York Center
Wed 07:34:17 AM 40.0006 -75.4833 195° South 278 320 6,000  Level New York Center
Wed 07:35:18 AM 39.9372 -75.5033 194° South 272 313 6,000 -590 Level New York Center
Wed 07:36:19 AM 39.8614 -75.5253 193° South 267 307 4,800 -1,212 Descending New York Center
Wed 07:37:02 AM 39.8167 -75.4833 144° Southeast 223 257 3,900 -1,165 Descending Philadelphia TRACON
Wed 07:38:02 AM 39.8333 -75.4167 72° East 166 191 2,800 -1,150 Descending Philadelphia TRACON
Wed 07:39:02 AM 39.8500 -75.3667 67° East 144 166 1,600 -1,200 Descending Philadelphia TRACON

Login

Don't have an account? Register now (free) for customized features, flight alerts, and more!